sensor_id;sensor_type;location;lat;lon;timestamp;pressure;altitude;pressure_sealevel;temperature;humidity
47742;BME280;33504;52.066;6.096;2023-05-02T00:01:01;101875.49;;;13.84;44.88
47742;BME280;33504;52.066;6.096;2023-05-02T00:03:28;101874.12;;;14.20;44.85
47742;BME280;33504;52.066;6.096;2023-05-02T00:05:55;101870.81;;;14.09;44.33
47742;BME280;33504;52.066;6.096;2023-05-02T00:08:22;101874.31;;;13.89;44.75
47742;BME280;33504;52.066;6.096;2023-05-02T00:10:49;101869.69;;;14.19;44.63
47742;BME280;33504;52.066;6.096;2023-05-02T00:13:16;101872.11;;;13.58;45.21
47742;BME280;33504;52.066;6.096;2023-05-02T00:15:43;101871.82;;;13.83;44.75
47742;BME280;33504;52.066;6.096;2023-05-02T00:18:10;101869.83;;;13.61;45.09
47742;BME280;33504;52.066;6.096;2023-05-02T00:20:39;101868.45;;;13.79;45.34
47742;BME280;33504;52.066;6.096;2023-05-02T00:23:05;101878.20;;;13.85;44.67
47742;BME280;33504;52.066;6.096;2023-05-02T00:25:33;101877.43;;;13.42;45.25
47742;BME280;33504;52.066;6.096;2023-05-02T00:27:59;101874.37;;;13.69;45.16
47742;BME280;33504;52.066;6.096;2023-05-02T00:30:26;101873.57;;;13.81;44.77
47742;BME280;33504;52.066;6.096;2023-05-02T00:32:54;101876.37;;;13.81;44.76
47742;BME280;33504;52.066;6.096;2023-05-02T00:35:21;101879.94;;;13.51;44.77
47742;BME280;33504;52.066;6.096;2023-05-02T00:37:48;101887.66;;;13.74;44.43
47742;BME280;33504;52.066;6.096;2023-05-02T00:40:16;101883.32;;;13.69;44.62
47742;BME280;33504;52.066;6.096;2023-05-02T00:42:43;101881.11;;;13.44;45.17
47742;BME280;33504;52.066;6.096;2023-05-02T00:45:10;101885.45;;;13.09;45.34
47742;BME280;33504;52.066;6.096;2023-05-02T00:47:38;101883.07;;;13.79;44.57
47742;BME280;33504;52.066;6.096;2023-05-02T00:50:06;101882.50;;;13.86;44.54
47742;BME280;33504;52.066;6.096;2023-05-02T00:52:33;101884.78;;;13.84;44.64
47742;BME280;33504;52.066;6.096;2023-05-02T00:55:01;101885.94;;;13.93;44.42
47742;BME280;33504;52.066;6.096;2023-05-02T00:57:28;101888.75;;;13.79;44.22
47742;BME280;33504;52.066;6.096;2023-05-02T00:59:55;101891.73;;;14.49;43.80
47742;BME280;33504;52.066;6.096;2023-05-02T01:02:31;101894.12;;;13.86;44.17
47742;BME280;33504;52.066;6.096;2023-05-02T01:05:09;101893.74;;;13.99;43.95
47742;BME280;33504;52.066;6.096;2023-05-02T01:07:52;101889.85;;;14.32;44.00
47742;BME280;33504;52.066;6.096;2023-05-02T01:10:28;101890.43;;;14.05;43.90
47742;BME280;33504;52.066;6.096;2023-05-02T01:13:00;101894.49;;;14.02;44.14
47742;BME280;33504;52.066;6.096;2023-05-02T01:15:30;101887.25;;;14.14;44.04
47742;BME280;33504;52.066;6.096;2023-05-02T01:18:00;101889.10;;;13.98;44.54
47742;BME280;33504;52.066;6.096;2023-05-02T01:20:28;101890.06;;;14.18;44.27
47742;BME280;33504;52.066;6.096;2023-05-02T01:23:02;101891.74;;;14.03;44.75
47742;BME280;33504;52.066;6.096;2023-05-02T01:25:36;101889.86;;;14.10;44.53
47742;BME280;33504;52.066;6.096;2023-05-02T01:28:15;101892.76;;;13.79;45.38
47742;BME280;33504;52.066;6.096;2023-05-02T01:30:48;101896.65;;;13.86;45.33
47742;BME280;33504;52.066;6.096;2023-05-02T01:33:17;101897.24;;;14.03;45.61
47742;BME280;33504;52.066;6.096;2023-05-02T01:35:49;101898.26;;;13.77;45.76
47742;BME280;33504;52.066;6.096;2023-05-02T01:38:18;101900.92;;;14.08;45.80
47742;BME280;33504;52.066;6.096;2023-05-02T01:40:49;101900.79;;;13.66;46.28
47742;BME280;33504;52.066;6.096;2023-05-02T01:43:19;101902.64;;;13.92;46.44
47742;BME280;33504;52.066;6.096;2023-05-02T01:45:48;101897.87;;;13.88;46.67
47742;BME280;33504;52.066;6.096;2023-05-02T01:48:18;101899.34;;;13.94;46.53
47742;BME280;33504;52.066;6.096;2023-05-02T01:50:46;101903.36;;;14.03;46.53
47742;BME280;33504;52.066;6.096;2023-05-02T01:53:14;101903.96;;;13.87;46.91
47742;BME280;33504;52.066;6.096;2023-05-02T01:55:44;101907.23;;;14.01;46.64
47742;BME280;33504;52.066;6.096;2023-05-02T01:58:13;101911.58;;;13.85;47.15
47742;BME280;33504;52.066;6.096;2023-05-02T02:00:43;101915.71;;;13.88;46.98
47742;BME280;33504;52.066;6.096;2023-05-02T02:03:11;101920.40;;;13.74;46.62
47742;BME280;33504;52.066;6.096;2023-05-02T02:05:40;101923.24;;;14.12;46.37
47742;BME280;33504;52.066;6.096;2023-05-02T02:08:08;101924.48;;;14.14;46.49
47742;BME280;33504;52.066;6.096;2023-05-02T02:10:38;101933.79;;;13.88;46.83
47742;BME280;33504;52.066;6.096;2023-05-02T02:13:13;101938.42;;;13.84;46.79
47742;BME280;33504;52.066;6.096;2023-05-02T02:15:46;101939.38;;;13.22;47.51
47742;BME280;33504;52.066;6.096;2023-05-02T02:18:20;101941.25;;;13.46;46.96
47742;BME280;33504;52.066;6.096;2023-05-02T02:20:49;101945.96;;;13.27;47.02
47742;BME280;33504;52.066;6.096;2023-05-02T02:23:19;101946.72;;;13.60;46.45
47742;BME280;33504;52.066;6.096;2023-05-02T02:25:47;101949.04;;;12.90;46.89
47742;BME280;33504;52.066;6.096;2023-05-02T02:28:16;101952.40;;;13.29;46.37
47742;BME280;33504;52.066;6.096;2023-05-02T02:30:44;101957.35;;;13.56;46.18
47742;BME280;33504;52.066;6.096;2023-05-02T02:33:10;101960.81;;;13.10;46.75
47742;BME280;33504;52.066;6.096;2023-05-02T02:35:41;101965.78;;;13.09;46.59
47742;BME280;33504;52.066;6.096;2023-05-02T02:38:13;101965.40;;;12.63;46.75
47742;BME280;33504;52.066;6.096;2023-05-02T02:40:52;101965.35;;;13.02;46.58
47742;BME280;33504;52.066;6.096;2023-05-02T02:43:26;101962.92;;;12.48;46.66
47742;BME280;33504;52.066;6.096;2023-05-02T02:46:16;101974.34;;;12.59;46.31
47742;BME280;33504;52.066;6.096;2023-05-02T02:48:52;101977.23;;;12.87;45.92
47742;BME280;33504;52.066;6.096;2023-05-02T02:51:27;101978.57;;;12.74;46.20
47742;BME280;33504;52.066;6.096;2023-05-02T02:54:00;101982.52;;;12.99;46.06
47742;BME280;33504;52.066;6.096;2023-05-02T02:56:36;101988.72;;;12.69;45.61
47742;BME280;33504;52.066;6.096;2023-05-02T02:59:06;101987.83;;;12.93;45.41
47742;BME280;33504;52.066;6.096;2023-05-02T02:59:13;101988.44;;;13.21;45.39
47742;BME280;33504;52.066;6.096;2023-05-02T03:01:45;101988.08;;;13.05;45.14
47742;BME280;33504;52.066;6.096;2023-05-02T03:04:15;101990.27;;;12.56;45.36
47742;BME280;33504;52.066;6.096;2023-05-02T03:06:43;101994.51;;;12.85;45.16
47742;BME280;33504;52.066;6.096;2023-05-02T03:09:14;101999.23;;;13.29;44.86
47742;BME280;33504;52.066;6.096;2023-05-02T03:11:41;102005.00;;;13.42;44.51
47742;BME280;33504;52.066;6.096;2023-05-02T03:14:07;101999.31;;;12.69;44.75
47742;BME280;33504;52.066;6.096;2023-05-02T03:16:35;102004.95;;;13.06;45.09
47742;BME280;33504;52.066;6.096;2023-05-02T03:19:03;102012.28;;;12.80;44.53
47742;BME280;33504;52.066;6.096;2023-05-02T03:21:31;102015.07;;;13.24;44.54
47742;BME280;33504;52.066;6.096;2023-05-02T03:23:59;102020.13;;;12.90;44.44
47742;BME280;33504;52.066;6.096;2023-05-02T03:26:26;102023.28;;;13.32;44.09
47742;BME280;33504;52.066;6.096;2023-05-02T03:28:53;102020.96;;;12.97;44.39
47742;BME280;33504;52.066;6.096;2023-05-02T03:31:21;102020.46;;;13.41;43.91
47742;BME280;33504;52.066;6.096;2023-05-02T03:33:48;102020.74;;;12.65;44.37
47742;BME280;33504;52.066;6.096;2023-05-02T03:36:15;102026.86;;;13.31;44.22
47742;BME280;33504;52.066;6.096;2023-05-02T03:38:42;102028.39;;;13.42;43.70
47742;BME280;33504;52.066;6.096;2023-05-02T03:41:09;102037.55;;;13.35;43.87
47742;BME280;33504;52.066;6.096;2023-05-02T03:43:35;102045.10;;;13.09;43.83
47742;BME280;33504;52.066;6.096;2023-05-02T03:46:05;102052.27;;;12.65;44.14
47742;BME280;33504;52.066;6.096;2023-05-02T03:48:33;102053.86;;;13.40;43.60
47742;BME280;33504;52.066;6.096;2023-05-02T03:51:00;102053.87;;;13.18;43.53
47742;BME280;33504;52.066;6.096;2023-05-02T03:53:28;102052.15;;;12.91;43.51
47742;BME280;33504;52.066;6.096;2023-05-02T03:55:56;102055.33;;;12.95;43.40
47742;BME280;33504;52.066;6.096;2023-05-02T03:58:23;102055.30;;;13.29;43.17
47742;BME280;33504;52.066;6.096;2023-05-02T04:00:50;102063.61;;;13.27;43.15
47742;BME280;33504;52.066;6.096;2023-05-02T04:03:17;102061.79;;;12.95;43.24
47742;BME280;33504;52.066;6.096;2023-05-02T04:05:44;102067.11;;;13.08;42.93
47742;BME280;33504;52.066;6.096;2023-05-02T04:08:11;102067.49;;;13.06;42.62
47742;BME280;33504;52.066;6.096;2023-05-02T04:10:38;102073.29;;;13.04;42.41
47742;BME280;33504;52.066;6.096;2023-05-02T04:13:05;102073.18;;;13.13;42.15
47742;BME280;33504;52.066;6.096;2023-05-02T04:15:32;102075.46;;;13.08;42.35
47742;BME280;33504;52.066;6.096;2023-05-02T04:17:59;102077.91;;;12.76;42.46
47742;BME280;33504;52.066;6.096;2023-05-02T04:20:26;102080.61;;;12.98;42.16
47742;BME280;33504;52.066;6.096;2023-05-02T04:22:52;102088.15;;;13.12;42.72
47742;BME280;33504;52.066;6.096;2023-05-02T04:25:19;102092.23;;;13.08;43.18
47742;BME280;33504;52.066;6.096;2023-05-02T04:27:46;102098.64;;;12.63;44.18
47742;BME280;33504;52.066;6.096;2023-05-02T04:30:13;102102.90;;;12.81;43.80
47742;BME280;33504;52.066;6.096;2023-05-02T04:32:39;102109.55;;;12.46;43.91
47742;BME280;33504;52.066;6.096;2023-05-02T04:35:08;102118.29;;;12.01;44.50
47742;BME280;33504;52.066;6.096;2023-05-02T04:37:35;102122.04;;;12.51;43.97
47742;BME280;33504;52.066;6.096;2023-05-02T04:40:02;102126.82;;;12.49;44.35
47742;BME280;33504;52.066;6.096;2023-05-02T04:42:29;102129.07;;;12.05;44.76
47742;BME280;33504;52.066;6.096;2023-05-02T04:44:56;102134.28;;;12.27;43.96
47742;BME280;33504;52.066;6.096;2023-05-02T04:47:23;102142.11;;;12.26;43.71
47742;BME280;33504;52.066;6.096;2023-05-02T04:49:50;102146.66;;;12.35;43.53
47742;BME280;33504;52.066;6.096;2023-05-02T04:52:17;102149.58;;;12.31;43.37
47742;BME280;33504;52.066;6.096;2023-05-02T04:54:44;102156.87;;;12.32;43.29
47742;BME280;33504;52.066;6.096;2023-05-02T04:57:11;102162.30;;;12.47;42.91
47742;BME280;33504;52.066;6.096;2023-05-02T04:59:37;102167.67;;;12.50;43.36
47742;BME280;33504;52.066;6.096;2023-05-02T05:02:04;102168.78;;;12.25;43.26
47742;BME280;33504;52.066;6.096;2023-05-02T05:04:32;102171.43;;;12.45;42.88
47742;BME280;33504;52.066;6.096;2023-05-02T05:06:59;102176.95;;;12.37;42.67
47742;BME280;33504;52.066;6.096;2023-05-02T05:09:26;102178.43;;;12.17;42.72
47742;BME280;33504;52.066;6.096;2023-05-02T05:11:53;102182.48;;;12.23;42.81
47742;BME280;33504;52.066;6.096;2023-05-02T05:14:20;102184.14;;;11.85;42.71
47742;BME280;33504;52.066;6.096;2023-05-02T05:16:46;102190.20;;;12.05;42.42
47742;BME280;33504;52.066;6.096;2023-05-02T05:19:13;102193.59;;;11.65;43.19
47742;BME280;33504;52.066;6.096;2023-05-02T05:21:40;102203.12;;;11.99;42.58
47742;BME280;33504;52.066;6.096;2023-05-02T05:24:07;102204.67;;;12.24;42.30
47742;BME280;33504;52.066;6.096;2023-05-02T05:26:34;102209.50;;;11.89;42.68
47742;BME280;33504;52.066;6.096;2023-05-02T05:29:01;102219.63;;;11.60;43.10
47742;BME280;33504;52.066;6.096;2023-05-02T05:31:28;102213.34;;;12.10;42.75
47742;BME280;33504;52.066;6.096;2023-05-02T05:33:55;102214.76;;;12.14;42.67
47742;BME280;33504;52.066;6.096;2023-05-02T05:36:22;102221.59;;;12.07;42.35
47742;BME280;33504;52.066;6.096;2023-05-02T05:38:50;102225.59;;;12.36;42.42
47742;BME280;33504;52.066;6.096;2023-05-02T05:41:17;102231.23;;;12.25;42.34
47742;BME280;33504;52.066;6.096;2023-05-02T05:43:45;102233.92;;;11.96;43.04
47742;BME280;33504;52.066;6.096;2023-05-02T05:46:12;102239.16;;;12.24;42.65
47742;BME280;33504;52.066;6.096;2023-05-02T05:48:38;102248.94;;;12.09;42.73
47742;BME280;33504;52.066;6.096;2023-05-02T05:51:06;102251.13;;;11.78;42.64
47742;BME280;33504;52.066;6.096;2023-05-02T05:53:33;102253.07;;;11.91;42.30
47742;BME280;33504;52.066;6.096;2023-05-02T05:56:07;102257.02;;;11.95;41.57
47742;BME280;33504;52.066;6.096;2023-05-02T05:58:34;102266.00;;;12.05;41.58
47742;BME280;33504;52.066;6.096;2023-05-02T06:01:01;102270.56;;;12.23;41.60
47742;BME280;33504;52.066;6.096;2023-05-02T06:03:28;102275.60;;;11.90;41.03
47742;BME280;33504;52.066;6.096;2023-05-02T06:05:55;102285.77;;;12.05;40.93
47742;BME280;33504;52.066;6.096;2023-05-02T06:08:21;102287.77;;;12.44;40.28
47742;BME280;33504;52.066;6.096;2023-05-02T06:10:48;102294.22;;;12.44;40.40
47742;BME280;33504;52.066;6.096;2023-05-02T06:13:16;102297.82;;;12.17;40.49
47742;BME280;33504;52.066;6.096;2023-05-02T06:15:42;102301.25;;;12.46;39.79
47742;BME280;33504;52.066;6.096;2023-05-02T06:18:09;102307.46;;;12.33;39.74
47742;BME280;33504;52.066;6.096;2023-05-02T06:20:36;102309.52;;;12.39;39.72
47742;BME280;33504;52.066;6.096;2023-05-02T06:23:03;102306.83;;;12.57;39.57
47742;BME280;33504;52.066;6.096;2023-05-02T06:25:30;102312.47;;;12.51;39.41
47742;BME280;33504;52.066;6.096;2023-05-02T06:27:56;102319.13;;;12.54;39.50
47742;BME280;33504;52.066;6.096;2023-05-02T06:30:23;102322.04;;;12.59;39.59
47742;BME280;33504;52.066;6.096;2023-05-02T06:32:51;102325.38;;;12.66;39.59
47742;BME280;33504;52.066;6.096;2023-05-02T06:35:17;102328.62;;;12.73;39.63
47742;BME280;33504;52.066;6.096;2023-05-02T06:37:45;102332.76;;;12.66;39.34
47742;BME280;33504;52.066;6.096;2023-05-02T06:40:12;102338.38;;;12.65;39.41
47742;BME280;33504;52.066;6.096;2023-05-02T06:42:39;102345.46;;;12.43;39.44
47742;BME280;33504;52.066;6.096;2023-05-02T06:45:07;102351.60;;;12.19;39.70
47742;BME280;33504;52.066;6.096;2023-05-02T06:47:34;102354.16;;;12.31;39.51
47742;BME280;33504;52.066;6.096;2023-05-02T06:50:01;102362.83;;;12.45;39.65
47742;BME280;33504;52.066;6.096;2023-05-02T06:52:28;102367.39;;;12.44;39.40
47742;BME280;33504;52.066;6.096;2023-05-02T06:54:54;102370.11;;;12.78;39.34
47742;BME280;33504;52.066;6.096;2023-05-02T06:57:21;102369.81;;;12.22;39.66
47742;BME280;33504;52.066;6.096;2023-05-02T06:59:48;102372.48;;;12.37;39.71
47742;BME280;33504;52.066;6.096;2023-05-02T07:02:15;102377.65;;;12.43;39.28
47742;BME280;33504;52.066;6.096;2023-05-02T07:04:42;102382.06;;;12.66;38.53
47742;BME280;33504;52.066;6.096;2023-05-02T07:07:08;102382.31;;;12.57;38.02
47742;BME280;33504;52.066;6.096;2023-05-02T07:09:35;102384.57;;;12.49;37.77
47742;BME280;33504;52.066;6.096;2023-05-02T07:12:02;102392.51;;;13.12;37.74
47742;BME280;33504;52.066;6.096;2023-05-02T07:14:30;102397.48;;;12.44;37.90
47742;BME280;33504;52.066;6.096;2023-05-02T07:16:56;102403.01;;;13.02;37.16
47742;BME280;33504;52.066;6.096;2023-05-02T07:19:23;102407.30;;;12.55;36.52
47742;BME280;33504;52.066;6.096;2023-05-02T07:21:50;102413.04;;;12.94;36.49
47742;BME280;33504;52.066;6.096;2023-05-02T07:24:17;102416.46;;;13.16;36.22
47742;BME280;33504;52.066;6.096;2023-05-02T07:26:44;102420.43;;;12.79;36.17
47742;BME280;33504;52.066;6.096;2023-05-02T07:29:11;102418.02;;;12.65;35.91
47742;BME280;33504;52.066;6.096;2023-05-02T07:31:38;102418.79;;;12.58;36.08
47742;BME280;33504;52.066;6.096;2023-05-02T07:34:05;102421.99;;;12.74;36.32
47742;BME280;33504;52.066;6.096;2023-05-02T07:36:32;102421.54;;;12.63;36.62
47742;BME280;33504;52.066;6.096;2023-05-02T07:38:59;102426.72;;;12.87;36.68
47742;BME280;33504;52.066;6.096;2023-05-02T07:41:26;102430.15;;;11.76;37.57
47742;BME280;33504;52.066;6.096;2023-05-02T07:43:52;102434.78;;;12.65;37.23
47742;BME280;33504;52.066;6.096;2023-05-02T07:46:19;102436.58;;;12.47;36.47
47742;BME280;33504;52.066;6.096;2023-05-02T07:48:46;102442.69;;;12.25;36.52
47742;BME280;33504;52.066;6.096;2023-05-02T07:51:13;102445.40;;;12.17;36.59
47742;BME280;33504;52.066;6.096;2023-05-02T07:53:40;102447.96;;;12.03;36.75
47742;BME280;33504;52.066;6.096;2023-05-02T07:56:07;102453.87;;;12.15;36.56
47742;BME280;33504;52.066;6.096;2023-05-02T07:58:34;102451.43;;;12.29;36.53
47742;BME280;33504;52.066;6.096;2023-05-02T08:01:02;102454.64;;;12.45;36.43
47742;BME280;33504;52.066;6.096;2023-05-02T08:03:29;102459.17;;;12.75;36.05
47742;BME280;33504;52.066;6.096;2023-05-02T08:05:56;102457.50;;;13.13;35.44
47742;BME280;33504;52.066;6.096;2023-05-02T08:08:23;102457.90;;;12.99;34.26
47742;BME280;33504;52.066;6.096;2023-05-02T08:10:49;102454.30;;;13.31;33.97
47742;BME280;33504;52.066;6.096;2023-05-02T08:13:16;102453.69;;;13.25;33.70
47742;BME280;33504;52.066;6.096;2023-05-02T08:15:43;102450.61;;;13.49;33.25
47742;BME280;33504;52.066;6.096;2023-05-02T08:18:10;102449.81;;;14.10;32.78
47742;BME280;33504;52.066;6.096;2023-05-02T08:20:37;102447.80;;;14.18;33.17
47742;BME280;33504;52.066;6.096;2023-05-02T08:23:03;102455.97;;;14.67;31.92
47742;BME280;33504;52.066;6.096;2023-05-02T08:25:30;102461.22;;;14.67;31.36
47742;BME280;33504;52.066;6.096;2023-05-02T08:27:57;102463.73;;;14.19;30.49
47742;BME280;33504;52.066;6.096;2023-05-02T08:30:24;102465.59;;;15.00;30.67
47742;BME280;33504;52.066;6.096;2023-05-02T08:32:50;102468.60;;;14.85;30.54
47742;BME280;33504;52.066;6.096;2023-05-02T08:35:17;102473.35;;;15.78;30.11
47742;BME280;33504;52.066;6.096;2023-05-02T08:37:45;102474.64;;;16.47;29.19
47742;BME280;33504;52.066;6.096;2023-05-02T08:40:13;102480.54;;;15.47;29.72
47742;BME280;33504;52.066;6.096;2023-05-02T08:42:42;102486.18;;;15.49;28.78
47742;BME280;33504;52.066;6.096;2023-05-02T08:45:11;102483.96;;;15.86;28.48
47742;BME280;33504;52.066;6.096;2023-05-02T08:47:40;102493.75;;;15.48;28.62
47742;BME280;33504;52.066;6.096;2023-05-02T08:50:08;102495.03;;;15.56;28.76
47742;BME280;33504;52.066;6.096;2023-05-02T08:52:36;102498.75;;;15.03;29.11
47742;BME280;33504;52.066;6.096;2023-05-02T08:55:04;102500.96;;;14.78;29.72
47742;BME280;33504;52.066;6.096;2023-05-02T08:57:31;102499.74;;;14.98;29.49
47742;BME280;33504;52.066;6.096;2023-05-02T08:59:58;102497.10;;;15.10;29.06
47742;BME280;33504;52.066;6.096;2023-05-02T09:02:38;102498.82;;;15.24;28.91
47742;BME280;33504;52.066;6.096;2023-05-02T09:05:11;102506.88;;;15.05;29.59
47742;BME280;33504;52.066;6.096;2023-05-02T09:07:44;102507.61;;;15.17;28.73
47742;BME280;33504;52.066;6.096;2023-05-02T09:10:11;102510.98;;;15.39;28.79
47742;BME280;33504;52.066;6.096;2023-05-02T09:12:39;102513.59;;;15.31;28.21
47742;BME280;33504;52.066;6.096;2023-05-02T09:15:08;102513.70;;;15.02;28.46
47742;BME280;33504;52.066;6.096;2023-05-02T09:17:41;102516.95;;;15.54;27.91
47742;BME280;33504;52.066;6.096;2023-05-02T09:20:09;102517.83;;;15.64;26.89
47742;BME280;33504;52.066;6.096;2023-05-02T09:22:37;102520.37;;;15.54;27.01
47742;BME280;33504;52.066;6.096;2023-05-02T09:25:05;102515.86;;;16.17;26.38
47742;BME280;33504;52.066;6.096;2023-05-02T09:27:48;102515.64;;;16.62;26.16
47742;BME280;33504;52.066;6.096;2023-05-02T09:30:19;102520.25;;;16.89;25.37
47742;BME280;33504;52.066;6.096;2023-05-02T09:32:47;102523.91;;;16.96;25.35
47742;BME280;33504;52.066;6.096;2023-05-02T09:35:15;102526.64;;;17.06;24.41
47742;BME280;33504;52.066;6.096;2023-05-02T09:37:41;102532.21;;;17.48;24.83
47742;BME280;33504;52.066;6.096;2023-05-02T09:40:09;102528.90;;;17.68;23.44
47742;BME280;33504;52.066;6.096;2023-05-02T09:42:36;102521.05;;;17.25;23.72
47742;BME280;33504;52.066;6.096;2023-05-02T09:45:04;102525.21;;;17.62;23.84
47742;BME280;33504;52.066;6.096;2023-05-02T09:47:31;102520.62;;;17.91;23.94
47742;BME280;33504;52.066;6.096;2023-05-02T09:49:58;102530.52;;;18.40;23.26
47742;BME280;33504;52.066;6.096;2023-05-02T09:52:24;102539.52;;;17.53;23.01
47742;BME280;33504;52.066;6.096;2023-05-02T09:54:51;102540.61;;;18.31;23.41
47742;BME280;33504;52.066;6.096;2023-05-02T09:57:18;102545.40;;;17.86;23.20
47742;BME280;33504;52.066;6.096;2023-05-02T09:59:52;102540.07;;;18.64;22.69
47742;BME280;33504;52.066;6.096;2023-05-02T10:02:20;102542.51;;;17.64;23.29
47742;BME280;33504;52.066;6.096;2023-05-02T10:04:48;102544.14;;;17.91;23.41
47742;BME280;33504;52.066;6.096;2023-05-02T10:07:17;102540.94;;;18.82;23.01
47742;BME280;33504;52.066;6.096;2023-05-02T10:09:45;102542.59;;;19.18;23.41
47742;BME280;33504;52.066;6.096;2023-05-02T10:12:14;102542.47;;;19.71;22.50
47742;BME280;33504;52.066;6.096;2023-05-02T10:14:48;102546.26;;;19.28;22.77
47742;BME280;33504;52.066;6.096;2023-05-02T10:17:21;102551.03;;;19.87;22.52
47742;BME280;33504;52.066;6.096;2023-05-02T10:19:54;102550.10;;;20.02;21.84
47742;BME280;33504;52.066;6.096;2023-05-02T10:22:23;102554.97;;;20.03;21.85
47742;BME280;33504;52.066;6.096;2023-05-02T10:24:51;102552.83;;;19.77;21.54
47742;BME280;33504;52.066;6.096;2023-05-02T10:27:19;102555.15;;;20.08;21.80
47742;BME280;33504;52.066;6.096;2023-05-02T10:29:46;102549.05;;;20.45;21.42
47742;BME280;33504;52.066;6.096;2023-05-02T10:32:18;102557.16;;;20.80;21.51
47742;BME280;33504;52.066;6.096;2023-05-02T10:34:46;102554.50;;;20.91;20.60
47742;BME280;33504;52.066;6.096;2023-05-02T10:37:16;102555.82;;;20.58;20.74
47742;BME280;33504;52.066;6.096;2023-05-02T10:39:43;102553.46;;;20.08;21.43
47742;BME280;33504;52.066;6.096;2023-05-02T10:42:11;102556.37;;;20.43;21.29
47742;BME280;33504;52.066;6.096;2023-05-02T10:44:40;102560.39;;;20.37;20.62
47742;BME280;33504;52.066;6.096;2023-05-02T10:47:17;102565.00;;;20.87;20.58
47742;BME280;33504;52.066;6.096;2023-05-02T10:49:49;102557.22;;;21.05;20.63
47742;BME280;33504;52.066;6.096;2023-05-02T10:52:25;102564.76;;;21.13;20.94
47742;BME280;33504;52.066;6.096;2023-05-02T10:55:12;102568.71;;;21.35;20.67
47742;BME280;33504;52.066;6.096;2023-05-02T10:58:22;102572.64;;;22.05;21.03
47742;BME280;33504;52.066;6.096;2023-05-02T11:00:49;102574.69;;;20.93;20.84
47742;BME280;33504;52.066;6.096;2023-05-02T11:03:53;102574.03;;;20.92;20.62
47742;BME280;33504;52.066;6.096;2023-05-02T11:06:20;102573.98;;;21.55;19.77
47742;BME280;33504;52.066;6.096;2023-05-02T11:08:47;102573.63;;;21.86;19.31
47742;BME280;33504;52.066;6.096;2023-05-02T11:11:47;102569.03;;;22.66;19.49
47742;BME280;33504;52.066;6.096;2023-05-02T11:14:42;102575.52;;;21.66;19.44
47742;BME280;33504;52.066;6.096;2023-05-02T11:17:10;102574.59;;;21.86;19.39
47742;BME280;33504;52.066;6.096;2023-05-02T11:20:18;102575.32;;;22.44;19.20
47742;BME280;33504;52.066;6.096;2023-05-02T11:22:45;102576.14;;;21.16;19.56
47742;BME280;33504;52.066;6.096;2023-05-02T11:25:29;102568.89;;;21.34;19.22
47742;BME280;33504;52.066;6.096;2023-05-02T11:27:56;102563.88;;;21.14;19.17
47742;BME280;33504;52.066;6.096;2023-05-02T11:30:41;102555.48;;;21.04;19.55
47742;BME280;33504;52.066;6.096;2023-05-02T11:33:11;102558.43;;;21.60;19.95
47742;BME280;33504;52.066;6.096;2023-05-02T11:35:41;102559.91;;;21.56;19.82
47742;BME280;33504;52.066;6.096;2023-05-02T11:38:10;102554.48;;;21.23;19.14
47742;BME280;33504;52.066;6.096;2023-05-02T11:40:37;102556.83;;;21.50;19.10
47742;BME280;33504;52.066;6.096;2023-05-02T11:43:12;102560.54;;;22.25;19.60
47742;BME280;33504;52.066;6.096;2023-05-02T11:45:39;102570.08;;;21.91;19.05
47742;BME280;33504;52.066;6.096;2023-05-02T11:48:07;102575.76;;;21.54;19.08
47742;BME280;33504;52.066;6.096;2023-05-02T11:50:40;102579.17;;;22.00;19.02
47742;BME280;33504;52.066;6.096;2023-05-02T11:53:10;102582.03;;;21.98;19.38
47742;BME280;33504;52.066;6.096;2023-05-02T11:55:43;102582.50;;;22.11;19.33
47742;BME280;33504;52.066;6.096;2023-05-02T11:58:12;102579.48;;;21.72;18.01
47742;BME280;33504;52.066;6.096;2023-05-02T12:00:39;102578.01;;;21.75;18.71
47742;BME280;33504;52.066;6.096;2023-05-02T12:03:07;102580.41;;;21.91;18.32
47742;BME280;33504;52.066;6.096;2023-05-02T12:05:34;102576.66;;;22.02;17.97
47742;BME280;33504;52.066;6.096;2023-05-02T12:08:01;102576.50;;;22.63;18.76
47742;BME280;33504;52.066;6.096;2023-05-02T12:10:35;102587.60;;;21.89;19.21
47742;BME280;33504;52.066;6.096;2023-05-02T12:13:04;102586.31;;;21.22;19.86
47742;BME280;33504;52.066;6.096;2023-05-02T12:15:31;102586.98;;;21.75;19.59
47742;BME280;33504;52.066;6.096;2023-05-02T12:17:59;102593.06;;;22.29;18.68
47742;BME280;33504;52.066;6.096;2023-05-02T12:20:27;102589.03;;;22.31;18.53
47742;BME280;33504;52.066;6.096;2023-05-02T12:22:54;102593.94;;;22.30;18.74
47742;BME280;33504;52.066;6.096;2023-05-02T12:25:21;102593.51;;;22.63;18.41
47742;BME280;33504;52.066;6.096;2023-05-02T12:28:00;102594.49;;;22.58;18.66
47742;BME280;33504;52.066;6.096;2023-05-02T12:30:27;102596.39;;;22.82;17.66
47742;BME280;33504;52.066;6.096;2023-05-02T12:32:55;102598.16;;;22.41;18.04
47742;BME280;33504;52.066;6.096;2023-05-02T12:35:22;102605.73;;;22.78;17.66
47742;BME280;33504;52.066;6.096;2023-05-02T12:37:51;102608.17;;;23.41;17.60
47742;BME280;33504;52.066;6.096;2023-05-02T12:40:18;102612.85;;;23.88;17.50
47742;BME280;33504;52.066;6.096;2023-05-02T12:42:57;102612.23;;;24.03;17.25
47742;BME280;33504;52.066;6.096;2023-05-02T12:45:25;102616.38;;;24.20;17.89
47742;BME280;33504;52.066;6.096;2023-05-02T12:47:52;102608.83;;;23.38;17.64
47742;BME280;33504;52.066;6.096;2023-05-02T12:50:19;102617.34;;;22.65;17.89
47742;BME280;33504;52.066;6.096;2023-05-02T12:52:48;102614.24;;;23.34;18.16
47742;BME280;33504;52.066;6.096;2023-05-02T12:55:16;102625.45;;;23.10;18.93
47742;BME280;33504;52.066;6.096;2023-05-02T12:57:43;102633.08;;;23.23;18.42